createdAt,value
2022-08-10T00:00:21.621Z,26.60
2022-08-10T00:01:23.516Z,26.60
2022-08-10T00:02:25.442Z,26.59
2022-08-10T00:03:27.232Z,25.96
2022-08-10T00:04:29.028Z,26.56
2022-08-10T00:05:43.776Z,26.69
2022-08-10T00:06:53.755Z,26.62
2022-08-10T00:07:56.079Z,26.82
2022-08-10T00:08:58.038Z,26.13
2022-08-10T00:10:00.084Z,26.60
2022-08-10T00:11:01.903Z,26.53
2022-08-10T00:12:05.874Z,26.59
2022-08-10T00:13:07.844Z,26.00
2022-08-10T00:14:09.643Z,26.45
2022-08-10T00:15:52.283Z,26.10
2022-08-10T00:16:35.651Z,26.56
2022-08-10T00:17:37.737Z,26.58
2022-08-10T00:18:39.701Z,26.71
2022-08-10T00:20:03.885Z,26.04
2022-08-10T00:21:08.202Z,26.53
2022-08-10T00:22:11.597Z,26.69
2022-08-10T00:23:19.169Z,26.62
2022-08-10T00:24:21.022Z,26.70
2022-08-10T00:25:22.834Z,26.63
2022-08-10T00:26:24.687Z,26.53
2022-08-10T00:27:50.120Z,26.50
2022-08-10T00:28:49.797Z,26.54
2022-08-10T00:29:52.188Z,26.59
2022-08-10T00:30:54.214Z,26.55
2022-08-10T00:31:59.093Z,26.48
2022-08-10T00:33:01.402Z,26.76
2022-08-10T00:34:03.284Z,26.62
2022-08-10T00:35:05.596Z,26.64
2022-08-10T00:36:07.701Z,26.54
2022-08-10T00:37:09.524Z,26.40
2022-08-10T00:38:11.469Z,26.68
2022-08-10T00:39:13.831Z,25.95
2022-08-10T00:40:18.644Z,26.64
2022-08-10T00:41:37.160Z,26.67
2022-08-10T00:42:39.107Z,26.65
2022-08-10T00:43:40.957Z,26.08
2022-08-10T00:44:45.315Z,26.71
2022-08-10T00:45:47.128Z,26.50
2022-08-10T00:47:02.000Z,26.42
2022-08-10T00:48:04.360Z,26.53
2022-08-10T00:49:06.309Z,26.60
2022-08-10T00:50:09.026Z,26.35
2022-08-10T00:51:11.934Z,26.35
2022-08-10T00:52:16.425Z,26.62
2022-08-10T00:53:18.272Z,26.61
2022-08-10T00:54:24.438Z,26.54
2022-08-10T00:55:27.323Z,26.62
2022-08-10T00:56:35.271Z,26.31
2022-08-10T00:57:54.807Z,26.34
2022-08-10T00:58:57.358Z,26.58
2022-08-10T01:00:00.549Z,26.54
2022-08-10T01:01:03.591Z,26.62
2022-08-10T01:02:08.247Z,26.64
2022-08-10T01:03:13.442Z,26.60
2022-08-10T01:04:57.423Z,26.72
2022-08-10T01:05:51.349Z,26.52
2022-08-10T01:07:05.748Z,26.78
2022-08-10T01:08:16.154Z,26.80
2022-08-10T01:10:11.247Z,26.90
2022-08-10T01:12:39.509Z,26.73
2022-08-10T01:12:59.216Z,26.88
2022-08-10T01:14:29.103Z,26.89
2022-08-10T01:15:50.312Z,26.86
2022-08-10T01:17:06.600Z,26.85
2022-08-10T01:18:23.391Z,26.82
2022-08-10T01:19:54.604Z,26.78
2022-08-10T01:21:30.988Z,26.90
2022-08-10T01:22:54.346Z,26.85
2022-08-10T01:24:13.839Z,26.87
2022-08-10T01:25:30.713Z,26.84
2022-08-10T01:27:05.443Z,26.87
2022-08-10T01:28:15.817Z,26.85
2022-08-10T01:29:50.426Z,26.87
2022-08-10T01:30:56.219Z,26.77
2022-08-10T01:32:04.184Z,26.79
2022-08-10T01:33:12.044Z,26.35
2022-08-10T01:34:21.070Z,26.76
2022-08-10T01:35:35.473Z,26.76
2022-08-10T01:36:50.201Z,26.67
2022-08-10T01:38:29.772Z,26.77
2022-08-10T01:39:39.556Z,26.84
2022-08-10T01:40:53.871Z,26.60
2022-08-10T01:41:58.793Z,26.57
2022-08-10T01:43:08.536Z,25.92
2022-08-10T01:44:30.613Z,26.65
2022-08-10T01:45:44.990Z,26.78
2022-08-10T01:46:56.703Z,26.69
2022-08-10T01:48:20.167Z,26.72
2022-08-10T01:49:24.935Z,26.70
2022-08-10T01:50:56.223Z,26.66
2022-08-10T01:52:03.635Z,26.82
2022-08-10T01:53:09.395Z,26.77
2022-08-10T01:54:19.969Z,26.37
2022-08-10T01:55:24.826Z,26.75
2022-08-10T01:56:30.618Z,26.68
2022-08-10T01:57:35.080Z,26.59
2022-08-10T01:58:38.411Z,26.65
2022-08-10T01:59:43.528Z,26.70
2022-08-10T02:01:03.205Z,26.72
2022-08-10T02:02:08.898Z,26.46
2022-08-10T02:03:12.797Z,26.03
2022-08-10T02:04:17.309Z,26.47
2022-08-10T02:05:22.481Z,26.61
2022-08-10T02:06:28.072Z,26.60
2022-08-10T02:07:31.381Z,26.42
2022-08-10T02:08:35.628Z,26.69
2022-08-10T02:09:40.522Z,26.41
2022-08-10T02:10:45.438Z,26.70
2022-08-10T02:11:55.813Z,26.71
2022-08-10T02:13:14.987Z,26.56
2022-08-10T02:14:22.038Z,26.57
2022-08-10T02:15:27.989Z,26.73
2022-08-10T02:16:30.957Z,26.64
2022-08-10T02:17:58.288Z,26.62
2022-08-10T02:19:00.298Z,26.77
2022-08-10T02:20:08.823Z,26.74
2022-08-10T02:21:11.781Z,26.73
2022-08-10T02:22:35.991Z,26.59
2022-08-10T02:23:40.896Z,26.77
2022-08-10T02:24:44.760Z,26.64
2022-08-10T02:25:48.619Z,26.72
2022-08-10T02:26:50.977Z,26.69
2022-08-10T02:28:04.630Z,26.53
2022-08-10T02:29:09.121Z,26.59
2022-08-10T02:30:12.555Z,26.70
2022-08-10T02:31:18.538Z,26.49
2022-08-10T02:32:36.386Z,26.70
2022-08-10T02:33:56.446Z,26.38
2022-08-10T02:35:03.123Z,26.47
2022-08-10T02:36:09.456Z,26.69
2022-08-10T02:37:13.447Z,26.60
2022-08-10T02:38:19.932Z,26.46
2022-08-10T02:39:23.563Z,26.61
2022-08-10T02:45:11.044Z,26.41
2022-08-10T02:45:13.195Z,26.29
2022-08-10T02:45:21.240Z,26.73
2022-08-10T02:45:29.778Z,26.80
2022-08-10T02:46:47.361Z,26.88
2022-08-10T02:47:58.068Z,26.73
2022-08-10T02:49:02.973Z,26.78
2022-08-10T02:50:24.996Z,26.71
2022-08-10T02:52:07.022Z,26.76
2022-08-10T02:53:55.631Z,26.67
2022-08-10T02:54:39.195Z,26.61
2022-08-10T02:55:48.051Z,26.23
2022-08-10T02:56:52.862Z,26.73
2022-08-10T02:58:16.767Z,26.51
2022-08-10T02:59:38.552Z,26.66
2022-08-10T03:00:46.688Z,26.57
2022-08-10T03:01:50.608Z,26.64
2022-08-10T03:02:53.787Z,26.71
2022-08-10T03:04:07.820Z,26.34
2022-08-10T03:05:11.811Z,26.49
2022-08-10T03:06:19.297Z,26.41
2022-08-10T03:07:43.065Z,26.54
2022-08-10T03:08:48.531Z,26.54
2022-08-10T03:09:52.192Z,26.69
2022-08-10T03:10:56.579Z,26.05
2022-08-10T03:12:36.100Z,26.15
2022-08-10T03:13:25.255Z,26.71
2022-08-10T03:14:29.332Z,26.52
2022-08-10T03:15:34.147Z,26.68
2022-08-10T03:16:37.636Z,26.67
2022-08-10T03:17:41.754Z,26.47
2022-08-10T03:19:02.498Z,26.64
2022-08-10T03:20:37.274Z,26.06
2022-08-10T03:21:29.027Z,26.72
2022-08-10T03:22:32.614Z,26.04
2022-08-10T03:23:35.754Z,25.94
2022-08-10T03:24:39.755Z,26.67
2022-08-10T03:25:54.189Z,26.66
2022-08-10T03:26:57.960Z,26.29
2022-08-10T03:28:00.654Z,26.63
2022-08-10T03:29:04.951Z,26.45
2022-08-10T03:30:29.589Z,26.44
2022-08-10T03:31:29.950Z,26.36
2022-08-10T03:32:33.979Z,26.44
2022-08-10T03:33:39.074Z,26.48
2022-08-10T03:34:42.045Z,26.46
2022-08-10T03:35:43.891Z,26.54
2022-08-10T03:37:05.743Z,26.54
2022-08-10T03:38:07.525Z,26.47
2022-08-10T03:39:10.214Z,26.49
2022-08-10T03:40:13.933Z,26.46
2022-08-10T03:41:18.360Z,26.44
2022-08-10T03:42:23.763Z,26.56
2022-08-10T03:43:27.241Z,25.98
2022-08-10T03:44:32.854Z,26.52
2022-08-10T03:45:48.494Z,26.45
2022-08-10T03:47:00.473Z,26.49
2022-08-10T03:48:04.893Z,25.95
2022-08-10T03:49:07.587Z,26.53
2022-08-10T03:50:28.040Z,26.55
2022-08-10T03:51:34.392Z,26.64
2022-08-10T03:52:36.777Z,26.38
2022-08-10T03:54:03.634Z,26.41
2022-08-10T03:55:02.385Z,26.49
2022-08-10T03:56:30.055Z,26.52
2022-08-10T03:57:30.117Z,26.34
2022-08-10T03:58:32.259Z,26.45
2022-08-10T03:59:35.345Z,26.34
2022-08-10T04:00:38.525Z,26.50
2022-08-10T04:02:41.563Z,26.66
2022-08-10T04:03:05.733Z,26.68
2022-08-10T04:04:13.073Z,26.65
2022-08-10T04:05:17.654Z,26.51
2022-08-10T04:06:20.103Z,26.68
2022-08-10T04:07:22.048Z,26.15
2022-08-10T04:08:24.049Z,26.61
2022-08-10T04:09:54.706Z,26.65
2022-08-10T04:10:52.151Z,26.50
2022-08-10T04:11:54.038Z,26.61
2022-08-10T04:12:56.368Z,25.95
2022-08-10T04:14:00.850Z,26.37
2022-08-10T04:15:03.064Z,26.66
2022-08-10T04:16:07.504Z,26.56
2022-08-10T04:17:13.913Z,26.54
2022-08-10T04:18:16.305Z,26.53
2022-08-10T04:19:19.231Z,26.65
2022-08-10T04:20:29.891Z,26.54
2022-08-10T04:21:39.442Z,25.81
2022-08-10T04:22:43.461Z,26.57
2022-08-10T04:23:53.038Z,26.67
2022-08-10T04:25:02.310Z,26.68
2022-08-10T04:26:04.802Z,26.60
2022-08-10T04:27:06.979Z,26.55
2022-08-10T04:28:09.370Z,26.57
2022-08-10T04:29:11.642Z,26.61
2022-08-10T04:30:16.581Z,26.49
2022-08-10T04:31:20.008Z,26.65
2022-08-10T04:32:23.804Z,26.43
2022-08-10T04:33:27.175Z,26.66
2022-08-10T04:34:31.967Z,26.56
2022-08-10T04:35:35.603Z,26.52
2022-08-10T04:36:39.486Z,26.53
2022-08-10T04:37:46.952Z,26.62
2022-08-10T04:38:52.155Z,26.68
2022-08-10T04:39:54.773Z,26.67
2022-08-10T04:40:57.738Z,26.44
2022-08-10T04:42:00.275Z,26.68
2022-08-10T04:43:11.615Z,26.47
2022-08-10T04:44:15.136Z,26.64
2022-08-10T04:45:17.580Z,26.53
2022-08-10T04:46:42.743Z,26.64
2022-08-10T04:47:57.456Z,26.06
2022-08-10T04:49:02.257Z,26.54
2022-08-10T04:50:07.384Z,26.70
2022-08-10T04:51:17.656Z,26.53
2022-08-10T04:52:20.635Z,26.66
2022-08-10T04:53:22.644Z,26.71
2022-08-10T04:54:25.443Z,26.55
2022-08-10T04:55:31.722Z,26.65
2022-08-10T04:56:35.641Z,26.69
2022-08-10T04:57:37.482Z,26.65
2022-08-10T04:58:39.550Z,26.60
2022-08-10T04:59:41.388Z,26.28
2022-08-10T05:00:43.222Z,26.54
2022-08-10T05:02:29.205Z,26.54
2022-08-10T05:03:06.912Z,26.62
2022-08-10T05:04:34.109Z,26.67
2022-08-10T05:05:30.635Z,26.58
2022-08-10T05:06:32.449Z,26.69
2022-08-10T05:07:34.852Z,25.98
2022-08-10T05:08:53.360Z,26.75
2022-08-10T05:10:03.438Z,25.85
2022-08-10T05:11:07.883Z,26.57
2022-08-10T05:12:10.272Z,26.53
2022-08-10T05:13:12.101Z,26.57
2022-08-10T05:14:13.868Z,26.00
2022-08-10T05:15:18.288Z,26.01
2022-08-10T05:16:30.648Z,26.06
2022-08-10T05:17:35.893Z,26.63
2022-08-10T05:18:37.726Z,26.79
2022-08-10T05:20:04.854Z,26.85
2022-08-10T05:21:01.542Z,26.92
2022-08-10T05:22:05.189Z,26.66
2022-08-10T05:23:07.563Z,26.24
2022-08-10T05:24:09.384Z,26.91
2022-08-10T05:25:17.207Z,27.04
2022-08-10T05:26:19.018Z,26.87
2022-08-10T05:27:20.880Z,26.87
2022-08-10T05:28:23.607Z,27.00
2022-08-10T05:29:30.322Z,27.19
2022-08-10T05:30:32.263Z,26.83
2022-08-10T05:31:34.102Z,27.24
2022-08-10T05:32:56.188Z,27.00
2022-08-10T05:33:58.763Z,27.08
2022-08-10T05:35:00.666Z,27.02
2022-08-10T05:36:03.547Z,27.10
2022-08-10T05:37:07.130Z,27.19
2022-08-10T05:38:29.482Z,27.19
2022-08-10T05:39:32.502Z,26.69
2022-08-10T05:40:36.021Z,27.52
2022-08-10T05:41:42.886Z,27.54
2022-08-10T05:42:47.266Z,27.43
2022-08-10T05:43:49.632Z,27.55
2022-08-10T05:44:51.956Z,27.22
2022-08-10T05:46:19.852Z,27.37
2022-08-10T05:47:16.731Z,27.11
2022-08-10T05:48:55.715Z,27.54
2022-08-10T05:49:40.899Z,27.50
2022-08-10T05:50:42.983Z,26.94
2022-08-10T05:51:44.953Z,27.49
2022-08-10T05:52:46.992Z,26.90
2022-08-10T05:54:01.746Z,27.62
2022-08-10T05:55:07.790Z,27.52
2022-08-10T05:56:10.025Z,27.01
2022-08-10T05:57:12.660Z,27.54
2022-08-10T05:58:14.748Z,27.58
2022-08-10T06:00:35.614Z,27.56
2022-08-10T06:00:48.355Z,27.52
2022-08-10T06:02:30.692Z,27.78
2022-08-10T06:03:17.353Z,27.78
2022-08-10T06:04:30.644Z,27.70
2022-08-10T06:05:37.351Z,27.81
2022-08-10T06:06:41.041Z,27.82
2022-08-10T06:07:54.422Z,27.82
2022-08-10T06:08:57.264Z,27.45
2022-08-10T06:10:02.640Z,27.70
2022-08-10T06:12:24.239Z,27.72
2022-08-10T06:12:31.125Z,27.75
2022-08-10T06:13:57.925Z,28.00
2022-08-10T06:15:21.835Z,28.08
2022-08-10T06:16:40.171Z,27.73
2022-08-10T06:17:42.976Z,28.01
2022-08-10T06:18:45.366Z,27.67
2022-08-10T06:19:48.037Z,27.74
2022-08-10T06:20:51.702Z,27.19
2022-08-10T06:22:01.259Z,27.68
2022-08-10T06:23:04.544Z,27.26
2022-08-10T06:24:11.149Z,27.95
2022-08-10T06:25:51.040Z,27.74
2022-08-10T06:26:35.209Z,27.83
2022-08-10T06:27:39.558Z,27.80
2022-08-10T06:29:02.385Z,27.89
2022-08-10T06:30:20.813Z,27.77
2022-08-10T06:31:25.520Z,27.94
2022-08-10T06:32:28.639Z,27.93
2022-08-10T06:33:33.576Z,27.78
2022-08-10T06:35:02.252Z,27.89
2022-08-10T06:36:07.663Z,27.98
2022-08-10T06:37:12.934Z,27.93
2022-08-10T06:38:16.890Z,27.72
2022-08-10T06:39:35.907Z,27.65
2022-08-10T06:40:40.881Z,28.10
2022-08-10T06:41:57.704Z,28.07
2022-08-10T06:43:17.162Z,28.12
2022-08-10T06:44:24.106Z,27.70
2022-08-10T06:45:31.626Z,28.09
2022-08-10T06:46:44.964Z,28.10
2022-08-10T06:48:25.331Z,28.15
2022-08-10T06:49:27.226Z,27.95
2022-08-10T06:50:56.142Z,28.13
2022-08-10T06:52:02.473Z,28.16
2022-08-10T06:53:11.222Z,27.44
2022-08-10T06:54:17.637Z,27.83
2022-08-10T06:55:23.485Z,27.93
2022-08-10T06:57:01.820Z,27.96
2022-08-10T06:58:08.652Z,27.95
2022-08-10T06:59:22.805Z,28.13
2022-08-10T07:00:33.297Z,28.01
2022-08-10T07:01:39.785Z,27.99
2022-08-10T07:02:50.849Z,27.75
2022-08-10T07:04:05.361Z,28.12
2022-08-10T07:05:11.500Z,27.95
2022-08-10T07:06:16.115Z,28.10
2022-08-10T07:07:22.565Z,28.07
2022-08-10T07:08:27.006Z,27.95
2022-08-10T07:09:30.686Z,27.39
2022-08-10T07:10:41.104Z,27.82
2022-08-10T07:11:50.111Z,27.59
2022-08-10T07:12:57.599Z,28.09
2022-08-10T07:14:17.080Z,27.49
2022-08-10T07:15:21.082Z,27.97
2022-08-10T07:16:28.361Z,27.94
2022-08-10T07:17:34.869Z,28.10
2022-08-10T07:18:43.294Z,28.03
2022-08-10T07:19:52.200Z,28.10
2022-08-10T07:20:55.401Z,27.41
2022-08-10T07:21:58.215Z,27.64
2022-08-10T07:23:57.441Z,27.79
2022-08-10T07:24:25.066Z,27.87
2022-08-10T07:25:28.672Z,27.54
2022-08-10T07:26:32.386Z,28.12
2022-08-10T07:27:39.299Z,27.73
2022-08-10T07:28:57.989Z,27.85
2022-08-10T07:30:00.489Z,28.09
2022-08-10T07:31:03.755Z,27.97
2022-08-10T07:32:08.477Z,27.86
2022-08-10T07:33:14.020Z,27.45
2022-08-10T07:34:29.576Z,27.95
2022-08-10T07:35:42.072Z,27.89
2022-08-10T07:36:47.859Z,28.16
2022-08-10T07:37:52.026Z,27.25
2022-08-10T07:38:55.934Z,27.96
2022-08-10T07:40:03.260Z,27.74
2022-08-10T07:41:07.920Z,28.10
2022-08-10T07:42:11.708Z,27.84
2022-08-10T07:43:15.625Z,27.98
2022-08-10T07:44:19.466Z,27.31
2022-08-10T07:45:21.431Z,27.85
2022-08-10T07:46:27.026Z,27.89
2022-08-10T07:47:53.861Z,27.47
2022-08-10T07:49:18.905Z,28.22
2022-08-10T07:50:24.932Z,28.21
2022-08-10T07:51:28.175Z,28.20
2022-08-10T07:52:34.195Z,27.48
2022-08-10T07:53:51.252Z,28.04
2022-08-10T07:54:55.485Z,27.94
2022-08-10T07:56:01.420Z,28.17
2022-08-10T07:57:09.657Z,27.90
2022-08-10T07:58:14.300Z,27.89
2022-08-10T07:59:23.299Z,28.16
2022-08-10T08:00:27.585Z,27.72
2022-08-10T08:01:32.725Z,27.88
2022-08-10T08:03:01.734Z,28.23
2022-08-10T08:04:11.410Z,27.63
2022-08-10T08:05:51.855Z,28.21
2022-08-10T08:06:37.575Z,27.75
2022-08-10T08:07:40.392Z,28.20
2022-08-10T08:08:44.621Z,27.73
2022-08-10T08:09:57.910Z,27.67
2022-08-10T08:11:02.467Z,27.80
2022-08-10T08:12:06.686Z,28.05
2022-08-10T08:13:10.502Z,27.90
2022-08-10T08:14:16.473Z,27.50
2022-08-10T08:16:17.418Z,27.91
2022-08-10T08:16:47.226Z,28.06
2022-08-10T08:17:57.457Z,28.20
2022-08-10T08:19:26.872Z,27.30
2022-08-10T08:20:26.505Z,28.03
2022-08-10T08:24:04.822Z,28.20
2022-08-10T08:24:11.141Z,27.89
2022-08-10T08:24:30.956Z,27.99
2022-08-10T08:25:35.769Z,27.98
2022-08-10T08:26:38.979Z,28.20
2022-08-10T08:27:47.622Z,27.78
2022-08-10T08:28:52.776Z,27.90
2022-08-10T08:29:55.139Z,28.08
2022-08-10T08:30:58.503Z,28.04
2022-08-10T08:32:03.608Z,28.18
2022-08-10T08:33:41.116Z,28.23
2022-08-10T08:34:44.878Z,27.92
2022-08-10T08:35:48.862Z,27.98
2022-08-10T08:36:53.910Z,28.14
2022-08-10T08:38:31.073Z,28.22
2022-08-10T08:39:21.949Z,27.72
2022-08-10T08:40:33.701Z,27.54
2022-08-10T08:41:38.115Z,28.24
2022-08-10T08:42:59.034Z,28.20
2022-08-10T08:44:09.474Z,28.25
2022-08-10T08:45:34.487Z,28.05
2022-08-10T08:46:59.225Z,27.93
2022-08-10T08:48:11.934Z,28.00
2022-08-10T08:50:05.126Z,28.30
2022-08-10T08:52:17.237Z,28.35
2022-08-10T08:53:22.210Z,28.40
2022-08-10T08:54:24.445Z,28.39
2022-08-10T08:56:05.028Z,28.06
2022-08-10T08:57:45.689Z,28.34
2022-08-10T08:59:21.305Z,28.41
2022-08-10T09:01:00.097Z,28.41
2022-08-10T09:02:18.355Z,28.39
2022-08-10T09:03:41.318Z,28.37
2022-08-10T09:04:52.937Z,27.88
2022-08-10T09:06:21.940Z,28.30
2022-08-10T09:08:01.777Z,28.18
2022-08-10T09:09:32.529Z,28.11
2022-08-10T09:10:48.220Z,27.52
2022-08-10T09:12:02.026Z,28.31
2022-08-10T09:13:29.570Z,28.34
2022-08-10T09:14:41.065Z,28.15
2022-08-10T09:16:00.068Z,28.30
2022-08-10T09:17:29.867Z,28.34
2022-08-10T09:18:44.086Z,28.35
2022-08-10T09:20:25.445Z,28.34
2022-08-10T09:22:09.952Z,28.29
2022-08-10T09:24:04.285Z,28.41
2022-08-10T09:24:59.246Z,28.19
2022-08-10T09:26:25.797Z,28.37
2022-08-10T09:27:39.457Z,28.17
2022-08-10T09:28:45.473Z,27.60
2022-08-10T09:30:08.656Z,28.33
2022-08-10T09:31:22.475Z,28.30
2022-08-10T09:36:21.605Z,28.19
2022-08-10T09:36:21.929Z,28.32
2022-08-10T09:36:23.866Z,28.12
2022-08-10T09:38:02.003Z,28.18
2022-08-10T09:40:56.091Z,28.43
2022-08-10T09:41:38.558Z,28.40
2022-08-10T09:43:07.858Z,28.32
2022-08-10T09:44:57.191Z,28.51
2022-08-10T09:46:05.998Z,28.49
2022-08-10T09:47:58.853Z,28.29
2022-08-10T09:48:50.556Z,28.46
2022-08-10T09:50:23.394Z,28.46
2022-08-10T09:52:09.663Z,28.49
2022-08-10T09:53:49.084Z,28.54
2022-08-10T09:55:09.401Z,28.52
2022-08-10T09:56:26.779Z,28.50
2022-08-10T09:57:46.527Z,28.46
2022-08-10T09:59:59.156Z,28.49
2022-08-10T10:00:34.349Z,28.33
2022-08-10T10:01:58.361Z,28.35
2022-08-10T10:03:23.988Z,28.54
2022-08-10T10:04:54.936Z,28.56
2022-08-10T10:06:16.695Z,28.21
2022-08-10T10:07:27.737Z,27.88
2022-08-10T10:08:58.202Z,28.55
2022-08-10T10:10:24.567Z,28.18
2022-08-10T10:11:43.590Z,28.57
2022-08-10T10:13:00.260Z,28.45
2022-08-10T10:14:16.314Z,28.42
2022-08-10T10:15:31.569Z,28.44
2022-08-10T10:16:52.503Z,28.37
2022-08-10T10:17:54.428Z,28.56
2022-08-10T10:19:15.511Z,28.54
2022-08-10T10:20:38.779Z,28.55
2022-08-10T10:21:55.252Z,28.57
2022-08-10T10:23:13.227Z,28.59
2022-08-10T10:24:42.867Z,28.54
2022-08-10T10:25:50.278Z,28.61
2022-08-10T10:27:03.643Z,28.11
2022-08-10T10:28:50.144Z,28.46
2022-08-10T10:30:03.632Z,28.33
2022-08-10T10:31:39.339Z,28.67
2022-08-10T10:32:52.457Z,28.67
2022-08-10T10:34:00.485Z,28.63
2022-08-10T10:35:04.975Z,28.61
2022-08-10T10:36:09.098Z,28.52
2022-08-10T10:37:12.362Z,28.40
2022-08-10T10:38:16.853Z,28.11
2022-08-10T10:39:24.095Z,28.44
2022-08-10T10:40:34.114Z,28.58
2022-08-10T10:42:03.462Z,28.60
2022-08-10T10:43:31.291Z,28.71
2022-08-10T10:44:47.290Z,28.70
2022-08-10T10:45:50.060Z,28.71
2022-08-10T10:47:01.738Z,28.69
2022-08-10T10:48:24.235Z,28.50
2022-08-10T10:49:52.229Z,28.36
2022-08-10T10:51:05.944Z,28.74
2022-08-10T10:52:17.379Z,28.71
2022-08-10T10:53:27.357Z,28.59
2022-08-10T10:54:35.287Z,28.71
2022-08-10T10:56:14.377Z,28.71
2022-08-10T10:57:58.656Z,28.62
2022-08-10T10:59:54.512Z,28.80
2022-08-10T11:01:08.784Z,28.84
2022-08-10T11:02:50.129Z,28.87
2022-08-10T11:04:22.142Z,28.88
2022-08-10T11:06:01.600Z,28.87
2022-08-10T11:07:31.674Z,28.80
2022-08-10T11:08:43.424Z,28.72
2022-08-10T11:10:32.596Z,28.82
2022-08-10T11:12:00.116Z,28.83
2022-08-10T11:14:26.038Z,28.85
2022-08-10T11:14:57.195Z,28.85
2022-08-10T11:16:09.097Z,28.42
2022-08-10T11:17:33.153Z,28.71
2022-08-10T11:18:53.339Z,28.81
2022-08-10T11:20:16.293Z,28.79
2022-08-10T11:21:35.337Z,28.65
2022-08-10T11:22:37.764Z,28.77
2022-08-10T11:23:46.983Z,28.41
2022-08-10T11:25:32.044Z,28.80
2022-08-10T11:26:42.912Z,28.77
2022-08-10T11:28:03.749Z,28.59
2022-08-10T11:29:18.291Z,28.36
2022-08-10T11:30:27.269Z,28.12
2022-08-10T11:31:37.355Z,28.61
2022-08-10T11:32:39.201Z,28.74
2022-08-10T11:34:11.501Z,28.69
2022-08-10T11:35:35.011Z,28.78
2022-08-10T11:36:58.133Z,28.57
2022-08-10T11:38:42.859Z,28.72
2022-08-10T11:40:30.405Z,28.90
2022-08-10T11:42:09.034Z,28.82
2022-08-10T11:43:19.248Z,28.57
2022-08-10T11:44:31.129Z,28.63
2022-08-10T11:45:36.817Z,28.28
2022-08-10T11:46:53.119Z,28.05
2022-08-10T11:48:01.952Z,28.52
2022-08-10T11:49:12.231Z,28.69
2022-08-10T11:50:33.856Z,28.46
2022-08-10T11:51:57.271Z,28.77
2022-08-10T11:53:15.656Z,28.61
2022-08-10T11:54:35.519Z,28.38
2022-08-10T11:55:37.467Z,28.69
2022-08-10T11:56:49.126Z,28.23
2022-08-10T11:58:27.570Z,28.71
2022-08-10T11:59:51.542Z,28.68
2022-08-10T12:01:04.282Z,28.56
2022-08-10T12:02:07.251Z,28.59
2022-08-10T12:03:09.847Z,28.51
2022-08-10T12:04:14.679Z,28.64
2022-08-10T12:05:20.210Z,28.63
2022-08-10T12:06:53.712Z,27.99
2022-08-10T12:10:01.740Z,28.55
2022-08-10T12:10:10.474Z,28.32
2022-08-10T12:10:41.067Z,28.68
2022-08-10T12:11:43.962Z,28.40
2022-08-10T12:12:54.387Z,28.39
2022-08-10T12:14:19.748Z,28.68
2022-08-10T12:16:05.982Z,28.77
2022-08-10T12:17:18.615Z,28.68
2022-08-10T12:18:27.159Z,28.45
2022-08-10T12:20:01.161Z,28.70
2022-08-10T12:21:03.008Z,28.72
2022-08-10T12:22:12.198Z,28.37
2022-08-10T12:23:22.350Z,28.43
2022-08-10T12:24:33.959Z,28.60
2022-08-10T12:25:58.730Z,28.54
2022-08-10T12:27:16.412Z,28.29
2022-08-10T12:28:29.095Z,28.65
2022-08-10T12:29:47.857Z,28.74
2022-08-10T12:30:55.016Z,28.44
2022-08-10T12:32:05.680Z,28.64
2022-08-10T12:33:14.342Z,28.63
2022-08-10T12:34:16.083Z,28.68
2022-08-10T12:35:26.305Z,28.65
2022-08-10T12:36:36.601Z,28.33
2022-08-10T12:38:00.622Z,28.65
2022-08-10T12:39:14.160Z,28.69
2022-08-10T12:40:35.227Z,28.65
2022-08-10T12:41:45.635Z,28.53
2022-08-10T12:44:04.301Z,28.72
2022-08-10T12:44:42.118Z,28.60
2022-08-10T12:46:12.220Z,28.75
2022-08-10T12:47:27.130Z,28.47
2022-08-10T12:48:39.535Z,28.74
2022-08-10T12:50:30.043Z,28.59
2022-08-10T12:51:30.916Z,28.77
2022-08-10T12:52:50.163Z,28.62
2022-08-10T12:54:13.806Z,28.73
2022-08-10T12:55:18.026Z,28.50
2022-08-10T12:56:39.961Z,28.57
2022-08-10T12:57:43.382Z,27.94
2022-08-10T12:58:58.145Z,28.70
2022-08-10T13:00:06.950Z,28.70
2022-08-10T13:01:23.359Z,28.72
2022-08-10T13:02:27.665Z,28.56
2022-08-10T13:04:21.983Z,28.36
2022-08-10T13:04:56.214Z,28.41
2022-08-10T13:06:03.380Z,28.63
2022-08-10T13:07:07.090Z,28.60
2022-08-10T13:08:28.650Z,28.61
2022-08-10T13:09:31.853Z,28.68
2022-08-10T13:10:42.080Z,28.70
2022-08-10T13:12:38.486Z,28.72
2022-08-10T13:13:20.751Z,28.38
2022-08-10T13:14:31.529Z,28.50
2022-08-10T13:15:49.183Z,28.61
2022-08-10T13:16:55.378Z,28.39
2022-08-10T13:18:01.514Z,28.73
2022-08-10T13:19:05.636Z,28.68
2022-08-10T13:20:19.855Z,28.50
2022-08-10T13:21:22.277Z,28.60
2022-08-10T13:22:28.650Z,28.39
2022-08-10T13:23:38.640Z,28.49
2022-08-10T13:24:45.604Z,28.73
2022-08-10T13:26:01.082Z,28.57
2022-08-10T13:27:24.921Z,28.73
2022-08-10T13:28:45.608Z,28.58
2022-08-10T13:30:01.568Z,28.74
2022-08-10T13:31:11.317Z,28.56
2022-08-10T13:32:21.720Z,28.65
2022-08-10T13:34:40.301Z,28.10
2022-08-10T13:34:52.684Z,28.10
2022-08-10T13:35:58.891Z,28.13
2022-08-10T13:37:14.608Z,28.51
2022-08-10T13:38:22.205Z,28.77
2022-08-10T13:39:27.293Z,28.58
2022-08-10T13:40:32.000Z,28.73
2022-08-10T13:41:40.953Z,28.69
2022-08-10T13:42:45.969Z,28.41
2022-08-10T13:43:52.572Z,28.59
2022-08-10T13:44:56.674Z,28.71
2022-08-10T13:45:59.957Z,28.72
2022-08-10T13:47:01.873Z,28.67
2022-08-10T13:48:12.564Z,28.67
2022-08-10T13:49:16.006Z,28.44
2022-08-10T13:50:35.193Z,28.59
2022-08-10T13:51:56.985Z,28.25
2022-08-10T13:53:01.514Z,28.78
2022-08-10T13:54:08.105Z,28.74
2022-08-10T13:55:16.216Z,28.50
2022-08-10T13:56:19.554Z,28.73
2022-08-10T13:57:26.094Z,28.63
2022-08-10T13:58:32.128Z,28.73
2022-08-10T14:00:37.866Z,28.09
2022-08-10T14:01:00.520Z,28.76
2022-08-10T14:02:04.336Z,28.47
2022-08-10T14:03:11.123Z,28.36
2022-08-10T14:04:14.287Z,28.40
2022-08-10T14:05:24.765Z,28.73
2022-08-10T14:06:29.610Z,28.73
2022-08-10T14:07:34.329Z,28.39
2022-08-10T14:08:38.795Z,28.54
2022-08-10T14:09:43.498Z,28.62
2022-08-10T14:11:09.939Z,28.57
2022-08-10T14:12:12.032Z,28.46
2022-08-10T14:13:16.989Z,28.60
2022-08-10T14:14:21.339Z,28.33
2022-08-10T14:15:30.452Z,28.41
2022-08-10T14:16:33.546Z,28.31
2022-08-10T14:17:41.326Z,28.72
2022-08-10T14:18:49.589Z,28.39
2022-08-10T14:19:58.826Z,28.50
2022-08-10T14:21:01.394Z,28.20
2022-08-10T14:22:06.791Z,28.70
2022-08-10T14:23:11.649Z,28.67
2022-08-10T14:24:24.936Z,28.72
2022-08-10T14:25:27.334Z,28.71
2022-08-10T14:26:31.246Z,28.73
2022-08-10T14:28:03.712Z,28.61
2022-08-10T14:29:08.171Z,28.77
2022-08-10T14:30:14.899Z,28.13
2022-08-10T14:31:22.008Z,28.50
2022-08-10T14:32:28.102Z,28.56
2022-08-10T14:33:32.682Z,28.50
2022-08-10T14:36:16.288Z,28.69
2022-08-10T14:36:20.490Z,28.75
2022-08-10T14:37:37.771Z,28.82
2022-08-10T14:38:45.270Z,28.67
2022-08-10T14:40:01.962Z,28.72
2022-08-10T14:42:02.647Z,28.67
2022-08-10T14:42:54.152Z,28.79
2022-08-10T14:44:01.018Z,28.42
2022-08-10T14:45:13.517Z,28.68
2022-08-10T14:46:19.947Z,28.74
2022-08-10T14:47:53.066Z,28.20
2022-08-10T14:48:53.075Z,28.80
2022-08-10T14:49:58.273Z,28.36
2022-08-10T14:51:02.419Z,28.11
2022-08-10T14:52:06.074Z,28.58
2022-08-10T14:53:14.943Z,28.75
2022-08-10T14:54:18.156Z,28.46
2022-08-10T14:55:20.639Z,28.74
2022-08-10T14:56:30.133Z,27.99
2022-08-10T14:58:19.970Z,28.32
2022-08-10T14:59:07.691Z,28.67
2022-08-10T15:00:28.054Z,28.80
2022-08-10T15:02:38.236Z,28.55
2022-08-10T15:03:10.950Z,28.04
2022-08-10T15:04:33.266Z,28.52
2022-08-10T15:05:39.498Z,28.49
2022-08-10T15:06:54.946Z,28.43
2022-08-10T15:07:58.874Z,28.79
2022-08-10T15:09:19.136Z,28.60
2022-08-10T15:10:23.431Z,28.36
2022-08-10T15:12:13.902Z,28.39
2022-08-10T15:12:53.791Z,28.57
2022-08-10T15:14:14.736Z,28.16
2022-08-10T15:15:27.851Z,28.39
2022-08-10T15:16:34.046Z,28.75
2022-08-10T15:17:40.797Z,28.00
2022-08-10T15:18:58.371Z,28.73
2022-08-10T15:20:14.144Z,28.50
2022-08-10T15:21:17.841Z,28.03
2022-08-10T15:22:37.230Z,28.78
2022-08-10T15:24:05.657Z,28.79
2022-08-10T15:25:19.155Z,28.70
2022-08-10T15:26:27.581Z,28.56
2022-08-10T15:27:54.623Z,28.08
2022-08-10T15:29:23.486Z,28.71
2022-08-10T15:30:31.105Z,28.15
2022-08-10T15:31:56.029Z,28.30